ěÝzenÝ letovÚho provozu ╚eskÚ republiky
Letiste: LKCS Aktualizace: 01.12.2023 22:00:41  UTC
 METAR LKCS 01.12. 22:00 ...
METAR LKCS 012200Z AUTO 31007KT 2100 -SN BKN008/// OVC015/// M01/M02 Q1001=